sensor_id;sensor_type;location;lat;lon;timestamp;temperature;humidity
32865;DHT22;19219;44.500;11.188;2023-06-19T00:01:29;22.30;99.90
32865;DHT22;19219;44.500;11.188;2023-06-19T00:03:55;22.30;99.90
32865;DHT22;19219;44.500;11.188;2023-06-19T00:06:20;22.30;99.90
32865;DHT22;19219;44.500;11.188;2023-06-19T00:08:46;22.30;99.90
32865;DHT22;19219;44.500;11.188;2023-06-19T00:11:12;22.20;99.90
32865;DHT22;19219;44.500;11.188;2023-06-19T00:13:37;22.10;99.90
32865;DHT22;19219;44.500;11.188;2023-06-19T00:16:03;22.10;99.90
32865;DHT22;19219;44.500;11.188;2023-06-19T00:18:30;22.10;99.90
32865;DHT22;19219;44.500;11.188;2023-06-19T00:20:56;22.10;99.90
32865;DHT22;19219;44.500;11.188;2023-06-19T00:23:25;22.00;99.90
32865;DHT22;19219;44.500;11.188;2023-06-19T00:25:50;22.00;99.90
32865;DHT22;19219;44.500;11.188;2023-06-19T00:28:16;22.00;99.90
32865;DHT22;19219;44.500;11.188;2023-06-19T00:30:45;22.00;99.90
32865;DHT22;19219;44.500;11.188;2023-06-19T00:33:10;21.90;99.90
32865;DHT22;19219;44.500;11.188;2023-06-19T00:35:36;21.90;99.90
32865;DHT22;19219;44.500;11.188;2023-06-19T00:38:02;21.80;99.90
32865;DHT22;19219;44.500;11.188;2023-06-19T00:40:30;21.70;99.90
32865;DHT22;19219;44.500;11.188;2023-06-19T00:42:56;21.80;99.90
32865;DHT22;19219;44.500;11.188;2023-06-19T00:45:22;21.70;99.90
32865;DHT22;19219;44.500;11.188;2023-06-19T00:47:50;21.70;99.90
32865;DHT22;19219;44.500;11.188;2023-06-19T00:50:16;21.60;99.90
32865;DHT22;19219;44.500;11.188;2023-06-19T00:52:43;21.60;99.90
32865;DHT22;19219;44.500;11.188;2023-06-19T00:55:09;21.60;99.90
32865;DHT22;19219;44.500;11.188;2023-06-19T00:57:35;21.60;99.90
32865;DHT22;19219;44.500;11.188;2023-06-19T01:00:02;21.50;99.90
32865;DHT22;19219;44.500;11.188;2023-06-19T01:02:30;21.50;99.90
32865;DHT22;19219;44.500;11.188;2023-06-19T01:04:56;21.60;99.90
32865;DHT22;19219;44.500;11.188;2023-06-19T01:07:46;21.60;99.90
32865;DHT22;19219;44.500;11.188;2023-06-19T01:10:21;21.60;99.90
32865;DHT22;19219;44.500;11.188;2023-06-19T01:12:56;21.60;99.90
32865;DHT22;19219;44.500;11.188;2023-06-19T01:15:22;21.60;99.90
32865;DHT22;19219;44.500;11.188;2023-06-19T01:17:48;21.60;99.90
32865;DHT22;19219;44.500;11.188;2023-06-19T01:20:15;21.70;99.90
32865;DHT22;19219;44.500;11.188;2023-06-19T01:22:41;21.70;99.90
32865;DHT22;19219;44.500;11.188;2023-06-19T01:25:09;21.70;99.90
32865;DHT22;19219;44.500;11.188;2023-06-19T01:27:35;21.70;99.90
32865;DHT22;19219;44.500;11.188;2023-06-19T01:30:02;21.70;99.90
32865;DHT22;19219;44.500;11.188;2023-06-19T01:35:07;21.60;99.90
32865;DHT22;19219;44.500;11.188;2023-06-19T01:37:37;21.60;99.90
32865;DHT22;19219;44.500;11.188;2023-06-19T01:40:05;21.60;99.90
32865;DHT22;19219;44.500;11.188;2023-06-19T01:42:37;21.50;99.90
32865;DHT22;19219;44.500;11.188;2023-06-19T01:45:04;21.40;99.90
32865;DHT22;19219;44.500;11.188;2023-06-19T01:47:30;21.40;99.90
32865;DHT22;19219;44.500;11.188;2023-06-19T01:49:56;21.50;99.90
32865;DHT22;19219;44.500;11.188;2023-06-19T01:52:22;21.40;99.90
32865;DHT22;19219;44.500;11.188;2023-06-19T01:54:48;21.40;99.90
32865;DHT22;19219;44.500;11.188;2023-06-19T01:57:14;21.40;99.90
32865;DHT22;19219;44.500;11.188;2023-06-19T01:59:40;21.40;99.90
32865;DHT22;19219;44.500;11.188;2023-06-19T02:02:05;21.40;99.90
32865;DHT22;19219;44.500;11.188;2023-06-19T02:04:32;21.40;99.90
32865;DHT22;19219;44.500;11.188;2023-06-19T02:06:58;21.40;99.90
32865;DHT22;19219;44.500;11.188;2023-06-19T02:09:24;21.30;99.90
32865;DHT22;19219;44.500;11.188;2023-06-19T02:11:49;21.30;99.90
32865;DHT22;19219;44.500;11.188;2023-06-19T02:14:15;21.30;99.90
32865;DHT22;19219;44.500;11.188;2023-06-19T02:16:41;21.20;99.90
32865;DHT22;19219;44.500;11.188;2023-06-19T02:19:11;21.30;99.90
32865;DHT22;19219;44.500;11.188;2023-06-19T02:21:37;21.20;99.90
32865;DHT22;19219;44.500;11.188;2023-06-19T02:24:03;21.10;99.90
32865;DHT22;19219;44.500;11.188;2023-06-19T02:26:29;21.10;99.90
32865;DHT22;19219;44.500;11.188;2023-06-19T02:28:56;21.00;99.90
32865;DHT22;19219;44.500;11.188;2023-06-19T02:31:22;21.00;99.90
32865;DHT22;19219;44.500;11.188;2023-06-19T02:33:48;21.00;99.90
32865;DHT22;19219;44.500;11.188;2023-06-19T02:36:14;20.90;99.90
32865;DHT22;19219;44.500;11.188;2023-06-19T02:38:47;20.80;99.90
32865;DHT22;19219;44.500;11.188;2023-06-19T02:41:13;20.80;99.90
32865;DHT22;19219;44.500;11.188;2023-06-19T02:43:44;20.80;99.90
32865;DHT22;19219;44.500;11.188;2023-06-19T02:46:09;20.70;99.90
32865;DHT22;19219;44.500;11.188;2023-06-19T02:48:35;20.70;99.90
32865;DHT22;19219;44.500;11.188;2023-06-19T02:51:01;20.80;99.90
32865;DHT22;19219;44.500;11.188;2023-06-19T02:53:27;20.80;99.90
32865;DHT22;19219;44.500;11.188;2023-06-19T02:55:52;20.80;99.90
32865;DHT22;19219;44.500;11.188;2023-06-19T02:58:18;20.80;99.90
32865;DHT22;19219;44.500;11.188;2023-06-19T03:00:45;20.80;99.90
32865;DHT22;19219;44.500;11.188;2023-06-19T03:03:11;20.90;99.90
32865;DHT22;19219;44.500;11.188;2023-06-19T03:05:37;20.80;99.90
32865;DHT22;19219;44.500;11.188;2023-06-19T03:08:04;20.80;99.90
32865;DHT22;19219;44.500;11.188;2023-06-19T03:10:30;20.80;99.90
32865;DHT22;19219;44.500;11.188;2023-06-19T03:12:55;20.80;99.90
32865;DHT22;19219;44.500;11.188;2023-06-19T03:15:23;20.80;99.90
32865;DHT22;19219;44.500;11.188;2023-06-19T03:17:49;20.90;99.90
32865;DHT22;19219;44.500;11.188;2023-06-19T03:20:14;20.90;99.90
32865;DHT22;19219;44.500;11.188;2023-06-19T03:22:41;21.00;99.90
32865;DHT22;19219;44.500;11.188;2023-06-19T03:25:07;21.10;99.90
32865;DHT22;19219;44.500;11.188;2023-06-19T03:27:34;21.10;99.90
32865;DHT22;19219;44.500;11.188;2023-06-19T03:30:00;21.10;99.90
32865;DHT22;19219;44.500;11.188;2023-06-19T03:32:26;21.20;99.90
32865;DHT22;19219;44.500;11.188;2023-06-19T03:34:51;21.10;99.90
32865;DHT22;19219;44.500;11.188;2023-06-19T03:37:17;21.20;99.90
32865;DHT22;19219;44.500;11.188;2023-06-19T03:39:43;21.10;99.90
32865;DHT22;19219;44.500;11.188;2023-06-19T03:42:08;21.20;99.90
32865;DHT22;19219;44.500;11.188;2023-06-19T03:44:34;21.10;99.90
32865;DHT22;19219;44.500;11.188;2023-06-19T03:47:00;21.00;99.90
32865;DHT22;19219;44.500;11.188;2023-06-19T03:49:25;21.00;99.90
32865;DHT22;19219;44.500;11.188;2023-06-19T03:51:52;21.00;99.90
32865;DHT22;19219;44.500;11.188;2023-06-19T03:54:20;20.90;99.90
32865;DHT22;19219;44.500;11.188;2023-06-19T03:56:45;21.00;99.90
32865;DHT22;19219;44.500;11.188;2023-06-19T03:59:11;21.00;99.90
32865;DHT22;19219;44.500;11.188;2023-06-19T04:01:37;21.00;99.90
32865;DHT22;19219;44.500;11.188;2023-06-19T04:04:02;21.10;99.90
32865;DHT22;19219;44.500;11.188;2023-06-19T04:06:28;21.10;99.90
32865;DHT22;19219;44.500;11.188;2023-06-19T04:08:53;21.10;99.90
32865;DHT22;19219;44.500;11.188;2023-06-19T04:11:19;21.20;99.90
32865;DHT22;19219;44.500;11.188;2023-06-19T04:13:46;21.30;99.90
32865;DHT22;19219;44.500;11.188;2023-06-19T04:16:12;21.40;99.90
32865;DHT22;19219;44.500;11.188;2023-06-19T04:18:37;21.50;99.90
32865;DHT22;19219;44.500;11.188;2023-06-19T04:21:03;21.50;99.90
32865;DHT22;19219;44.500;11.188;2023-06-19T04:23:29;21.60;99.90
32865;DHT22;19219;44.500;11.188;2023-06-19T04:25:54;21.60;99.90
32865;DHT22;19219;44.500;11.188;2023-06-19T04:28:20;21.70;99.90
32865;DHT22;19219;44.500;11.188;2023-06-19T04:30:46;21.80;99.90
32865;DHT22;19219;44.500;11.188;2023-06-19T04:33:13;21.80;99.90
32865;DHT22;19219;44.500;11.188;2023-06-19T04:35:38;21.90;99.90
32865;DHT22;19219;44.500;11.188;2023-06-19T04:38:07;22.00;99.90
32865;DHT22;19219;44.500;11.188;2023-06-19T04:40:33;22.00;99.90
32865;DHT22;19219;44.500;11.188;2023-06-19T04:43:01;22.10;99.90
32865;DHT22;19219;44.500;11.188;2023-06-19T04:45:28;22.10;99.90
32865;DHT22;19219;44.500;11.188;2023-06-19T04:47:53;22.20;99.90
32865;DHT22;19219;44.500;11.188;2023-06-19T04:50:20;22.20;99.90
32865;DHT22;19219;44.500;11.188;2023-06-19T04:52:46;22.30;99.90
32865;DHT22;19219;44.500;11.188;2023-06-19T04:55:12;22.40;99.90
32865;DHT22;19219;44.500;11.188;2023-06-19T04:57:38;22.40;99.90
32865;DHT22;19219;44.500;11.188;2023-06-19T05:00:04;22.60;99.90
32865;DHT22;19219;44.500;11.188;2023-06-19T05:02:34;22.60;99.90
32865;DHT22;19219;44.500;11.188;2023-06-19T05:05:00;22.80;99.90
32865;DHT22;19219;44.500;11.188;2023-06-19T05:07:30;23.00;99.90
32865;DHT22;19219;44.500;11.188;2023-06-19T05:09:57;23.20;99.90
32865;DHT22;19219;44.500;11.188;2023-06-19T05:12:23;23.50;99.90
32865;DHT22;19219;44.500;11.188;2023-06-19T05:14:49;23.70;99.90
32865;DHT22;19219;44.500;11.188;2023-06-19T05:17:14;24.00;99.90
32865;DHT22;19219;44.500;11.188;2023-06-19T05:19:40;24.30;99.90
32865;DHT22;19219;44.500;11.188;2023-06-19T05:22:06;24.50;99.90
32865;DHT22;19219;44.500;11.188;2023-06-19T05:24:32;24.70;99.90
32865;DHT22;19219;44.500;11.188;2023-06-19T05:26:57;24.70;99.90
32865;DHT22;19219;44.500;11.188;2023-06-19T05:29:23;24.70;99.90
32865;DHT22;19219;44.500;11.188;2023-06-19T05:31:49;24.60;99.90
32865;DHT22;19219;44.500;11.188;2023-06-19T05:34:14;24.60;99.90
32865;DHT22;19219;44.500;11.188;2023-06-19T05:36:40;24.50;99.90
32865;DHT22;19219;44.500;11.188;2023-06-19T05:39:05;24.60;99.90
32865;DHT22;19219;44.500;11.188;2023-06-19T05:41:31;24.50;99.90
32865;DHT22;19219;44.500;11.188;2023-06-19T05:43:58;24.50;99.90
32865;DHT22;19219;44.500;11.188;2023-06-19T05:46:23;24.50;99.90
32865;DHT22;19219;44.500;11.188;2023-06-19T05:48:49;24.50;99.90
32865;DHT22;19219;44.500;11.188;2023-06-19T05:51:16;24.50;99.90
32865;DHT22;19219;44.500;11.188;2023-06-19T05:53:41;24.50;99.90
32865;DHT22;19219;44.500;11.188;2023-06-19T05:56:07;24.60;99.90
32865;DHT22;19219;44.500;11.188;2023-06-19T05:58:33;24.60;99.90
32865;DHT22;19219;44.500;11.188;2023-06-19T06:00:58;24.70;99.90
32865;DHT22;19219;44.500;11.188;2023-06-19T06:03:24;24.80;99.90
32865;DHT22;19219;44.500;11.188;2023-06-19T06:05:51;24.80;99.90
32865;DHT22;19219;44.500;11.188;2023-06-19T06:08:17;24.90;99.90
32865;DHT22;19219;44.500;11.188;2023-06-19T06:10:43;25.00;99.90
32865;DHT22;19219;44.500;11.188;2023-06-19T06:13:08;25.00;99.90
32865;DHT22;19219;44.500;11.188;2023-06-19T06:15:34;25.00;99.90
32865;DHT22;19219;44.500;11.188;2023-06-19T06:17:59;25.10;99.90
32865;DHT22;19219;44.500;11.188;2023-06-19T06:20:26;25.10;99.90
32865;DHT22;19219;44.500;11.188;2023-06-19T06:22:53;25.10;99.90
32865;DHT22;19219;44.500;11.188;2023-06-19T06:25:18;25.10;99.90
32865;DHT22;19219;44.500;11.188;2023-06-19T06:27:45;25.20;99.90
32865;DHT22;19219;44.500;11.188;2023-06-19T06:30:11;25.20;99.90
32865;DHT22;19219;44.500;11.188;2023-06-19T06:32:37;25.40;99.90
32865;DHT22;19219;44.500;11.188;2023-06-19T06:35:03;25.60;99.90
32865;DHT22;19219;44.500;11.188;2023-06-19T06:37:29;25.90;99.90
32865;DHT22;19219;44.500;11.188;2023-06-19T06:39:55;26.20;99.90
32865;DHT22;19219;44.500;11.188;2023-06-19T06:42:21;27.00;99.90
32865;DHT22;19219;44.500;11.188;2023-06-19T06:44:47;27.80;99.90
32865;DHT22;19219;44.500;11.188;2023-06-19T06:47:12;28.10;99.90
32865;DHT22;19219;44.500;11.188;2023-06-19T06:49:38;28.10;99.90
32865;DHT22;19219;44.500;11.188;2023-06-19T06:52:04;27.90;99.90
32865;DHT22;19219;44.500;11.188;2023-06-19T06:54:30;27.70;99.90
32865;DHT22;19219;44.500;11.188;2023-06-19T06:56:56;27.60;99.90
32865;DHT22;19219;44.500;11.188;2023-06-19T06:59:24;27.50;99.90
32865;DHT22;19219;44.500;11.188;2023-06-19T07:01:50;27.50;99.90
32865;DHT22;19219;44.500;11.188;2023-06-19T07:04:16;27.50;99.90
32865;DHT22;19219;44.500;11.188;2023-06-19T07:06:42;27.50;99.90
32865;DHT22;19219;44.500;11.188;2023-06-19T07:09:08;27.70;99.90
32865;DHT22;19219;44.500;11.188;2023-06-19T07:11:34;27.70;99.90
32865;DHT22;19219;44.500;11.188;2023-06-19T07:13:59;27.60;99.90
32865;DHT22;19219;44.500;11.188;2023-06-19T07:16:25;27.40;99.90
32865;DHT22;19219;44.500;11.188;2023-06-19T07:18:51;27.30;99.90
32865;DHT22;19219;44.500;11.188;2023-06-19T07:21:16;27.40;99.90
32865;DHT22;19219;44.500;11.188;2023-06-19T07:23:43;27.50;99.90
32865;DHT22;19219;44.500;11.188;2023-06-19T07:26:10;27.60;99.90
32865;DHT22;19219;44.500;11.188;2023-06-19T07:28:36;27.60;99.90
32865;DHT22;19219;44.500;11.188;2023-06-19T07:31:03;27.70;99.90
32865;DHT22;19219;44.500;11.188;2023-06-19T07:33:29;27.80;99.90
32865;DHT22;19219;44.500;11.188;2023-06-19T07:35:57;28.00;99.90
32865;DHT22;19219;44.500;11.188;2023-06-19T07:38:23;28.20;99.90
32865;DHT22;19219;44.500;11.188;2023-06-19T07:40:48;28.50;99.90
32865;DHT22;19219;44.500;11.188;2023-06-19T07:43:14;28.60;99.90
32865;DHT22;19219;44.500;11.188;2023-06-19T07:45:40;28.40;99.90
32865;DHT22;19219;44.500;11.188;2023-06-19T07:48:06;28.30;99.90
32865;DHT22;19219;44.500;11.188;2023-06-19T07:50:32;28.40;99.90
32865;DHT22;19219;44.500;11.188;2023-06-19T07:52:57;28.20;99.90
32865;DHT22;19219;44.500;11.188;2023-06-19T07:55:23;28.20;99.90
32865;DHT22;19219;44.500;11.188;2023-06-19T07:57:49;28.30;99.90
32865;DHT22;19219;44.500;11.188;2023-06-19T08:00:15;28.30;99.90
32865;DHT22;19219;44.500;11.188;2023-06-19T08:02:41;28.40;99.90
32865;DHT22;19219;44.500;11.188;2023-06-19T08:05:08;28.60;99.90
32865;DHT22;19219;44.500;11.188;2023-06-19T08:07:34;28.90;99.90
32865;DHT22;19219;44.500;11.188;2023-06-19T08:10:00;29.00;99.90
32865;DHT22;19219;44.500;11.188;2023-06-19T08:12:25;29.10;99.90
32865;DHT22;19219;44.500;11.188;2023-06-19T08:14:51;29.20;99.90
32865;DHT22;19219;44.500;11.188;2023-06-19T08:17:17;29.60;99.90
32865;DHT22;19219;44.500;11.188;2023-06-19T08:19:42;29.70;99.90
32865;DHT22;19219;44.500;11.188;2023-06-19T08:22:09;30.20;99.90
32865;DHT22;19219;44.500;11.188;2023-06-19T08:24:36;30.50;99.90
32865;DHT22;19219;44.500;11.188;2023-06-19T08:27:02;30.70;99.90
32865;DHT22;19219;44.500;11.188;2023-06-19T08:29:28;30.60;99.90
32865;DHT22;19219;44.500;11.188;2023-06-19T08:31:53;30.60;99.90
32865;DHT22;19219;44.500;11.188;2023-06-19T08:34:19;30.70;99.90
32865;DHT22;19219;44.500;11.188;2023-06-19T08:36:45;30.80;99.90
32865;DHT22;19219;44.500;11.188;2023-06-19T08:39:10;31.00;98.60
32865;DHT22;19219;44.500;11.188;2023-06-19T08:41:39;31.20;98.60
32865;DHT22;19219;44.500;11.188;2023-06-19T08:44:07;31.60;97.00
32865;DHT22;19219;44.500;11.188;2023-06-19T08:46:33;31.30;93.60
32865;DHT22;19219;44.500;11.188;2023-06-19T08:49:00;31.50;93.70
32865;DHT22;19219;44.500;11.188;2023-06-19T08:51:27;31.50;93.70
32865;DHT22;19219;44.500;11.188;2023-06-19T08:53:56;31.80;94.30
32865;DHT22;19219;44.500;11.188;2023-06-19T08:56:22;31.90;93.40
32865;DHT22;19219;44.500;11.188;2023-06-19T08:58:47;31.80;92.70
32865;DHT22;19219;44.500;11.188;2023-06-19T09:01:19;31.60;92.60
32865;DHT22;19219;44.500;11.188;2023-06-19T09:03:46;31.40;92.20
32865;DHT22;19219;44.500;11.188;2023-06-19T09:06:15;31.50;92.80
32865;DHT22;19219;44.500;11.188;2023-06-19T09:08:41;31.80;92.90
32865;DHT22;19219;44.500;11.188;2023-06-19T09:11:07;32.30;92.30
32865;DHT22;19219;44.500;11.188;2023-06-19T09:13:33;32.40;91.60
32865;DHT22;19219;44.500;11.188;2023-06-19T09:16:06;32.60;90.20
32865;DHT22;19219;44.500;11.188;2023-06-19T09:18:52;32.70;88.50
32865;DHT22;19219;44.500;11.188;2023-06-19T09:21:20;32.70;85.70
32865;DHT22;19219;44.500;11.188;2023-06-19T09:23:48;32.60;88.60
32865;DHT22;19219;44.500;11.188;2023-06-19T09:26:17;32.50;86.40
32865;DHT22;19219;44.500;11.188;2023-06-19T09:28:45;32.50;89.00
32865;DHT22;19219;44.500;11.188;2023-06-19T09:31:11;32.70;87.00
32865;DHT22;19219;44.500;11.188;2023-06-19T09:33:38;32.90;89.80
32865;DHT22;19219;44.500;11.188;2023-06-19T09:36:05;32.60;89.50
32865;DHT22;19219;44.500;11.188;2023-06-19T09:38:34;32.70;89.10
32865;DHT22;19219;44.500;11.188;2023-06-19T09:41:03;32.80;87.30
32865;DHT22;19219;44.500;11.188;2023-06-19T09:43:37;32.70;86.90
32865;DHT22;19219;44.500;11.188;2023-06-19T09:46:03;32.60;85.40
32865;DHT22;19219;44.500;11.188;2023-06-19T09:48:31;32.60;85.00
32865;DHT22;19219;44.500;11.188;2023-06-19T09:53:44;32.90;86.50
32865;DHT22;19219;44.500;11.188;2023-06-19T09:56:11;32.70;82.40
32865;DHT22;19219;44.500;11.188;2023-06-19T09:58:38;32.50;87.50
32865;DHT22;19219;44.500;11.188;2023-06-19T10:01:04;32.40;82.50
32865;DHT22;19219;44.500;11.188;2023-06-19T10:03:33;32.40;83.40
32865;DHT22;19219;44.500;11.188;2023-06-19T10:06:00;32.50;84.20
32865;DHT22;19219;44.500;11.188;2023-06-19T10:08:32;32.60;84.50
32865;DHT22;19219;44.500;11.188;2023-06-19T10:11:03;32.30;84.30
32865;DHT22;19219;44.500;11.188;2023-06-19T10:13:36;32.20;83.60
32865;DHT22;19219;44.500;11.188;2023-06-19T10:16:04;32.20;82.50
32865;DHT22;19219;44.500;11.188;2023-06-19T10:18:32;32.10;81.80
32865;DHT22;19219;44.500;11.188;2023-06-19T10:20:58;32.10;83.20
32865;DHT22;19219;44.500;11.188;2023-06-19T10:23:25;32.30;80.10
32865;DHT22;19219;44.500;11.188;2023-06-19T10:28:23;32.30;80.80
32865;DHT22;19219;44.500;11.188;2023-06-19T10:33:19;32.30;80.50
32865;DHT22;19219;44.500;11.188;2023-06-19T10:35:44;32.40;83.70
32865;DHT22;19219;44.500;11.188;2023-06-19T10:38:10;32.50;79.60
32865;DHT22;19219;44.500;11.188;2023-06-19T10:40:37;32.50;80.30
32865;DHT22;19219;44.500;11.188;2023-06-19T10:43:03;32.50;82.70
32865;DHT22;19219;44.500;11.188;2023-06-19T10:45:29;32.60;80.30
32865;DHT22;19219;44.500;11.188;2023-06-19T10:47:55;32.40;79.40
32865;DHT22;19219;44.500;11.188;2023-06-19T10:50:22;32.30;80.20
32865;DHT22;19219;44.500;11.188;2023-06-19T10:52:48;32.30;83.00
32865;DHT22;19219;44.500;11.188;2023-06-19T10:55:18;32.30;79.90
32865;DHT22;19219;44.500;11.188;2023-06-19T10:57:47;32.40;79.40
32865;DHT22;19219;44.500;11.188;2023-06-19T11:00:32;32.40;82.20
32865;DHT22;19219;44.500;11.188;2023-06-19T11:03:00;32.50;79.30
32865;DHT22;19219;44.500;11.188;2023-06-19T11:05:27;32.80;79.60
32865;DHT22;19219;44.500;11.188;2023-06-19T11:07:58;32.70;81.10
32865;DHT22;19219;44.500;11.188;2023-06-19T11:10:28;32.50;79.20
32865;DHT22;19219;44.500;11.188;2023-06-19T11:12:55;32.50;82.30
32865;DHT22;19219;44.500;11.188;2023-06-19T11:15:31;32.40;81.00
32865;DHT22;19219;44.500;11.188;2023-06-19T11:17:58;32.60;80.80
32865;DHT22;19219;44.500;11.188;2023-06-19T11:20:24;32.40;80.50
32865;DHT22;19219;44.500;11.188;2023-06-19T11:22:55;32.40;81.90
32865;DHT22;19219;44.500;11.188;2023-06-19T11:25:22;32.40;80.30
32865;DHT22;19219;44.500;11.188;2023-06-19T11:27:47;32.40;80.00
32865;DHT22;19219;44.500;11.188;2023-06-19T11:30:29;32.50;83.30
32865;DHT22;19219;44.500;11.188;2023-06-19T11:32:56;32.60;80.60
32865;DHT22;19219;44.500;11.188;2023-06-19T11:35:21;32.60;84.10
32865;DHT22;19219;44.500;11.188;2023-06-19T11:37:47;32.70;81.80
32865;DHT22;19219;44.500;11.188;2023-06-19T11:40:13;32.60;81.70
32865;DHT22;19219;44.500;11.188;2023-06-19T11:42:51;32.60;82.90
32865;DHT22;19219;44.500;11.188;2023-06-19T11:45:17;32.50;82.00
32865;DHT22;19219;44.500;11.188;2023-06-19T11:47:46;32.50;83.20
32865;DHT22;19219;44.500;11.188;2023-06-19T11:50:13;32.40;85.90
32865;DHT22;19219;44.500;11.188;2023-06-19T11:52:39;32.30;84.40
32865;DHT22;19219;44.500;11.188;2023-06-19T11:55:05;32.10;83.50
32865;DHT22;19219;44.500;11.188;2023-06-19T11:57:31;31.90;81.60
32865;DHT22;19219;44.500;11.188;2023-06-19T11:59:58;31.90;81.40
32865;DHT22;19219;44.500;11.188;2023-06-19T12:02:24;32.10;84.70
32865;DHT22;19219;44.500;11.188;2023-06-19T12:04:49;32.10;86.00
32865;DHT22;19219;44.500;11.188;2023-06-19T12:07:15;32.10;85.50
32865;DHT22;19219;44.500;11.188;2023-06-19T12:09:41;32.00;85.90
32865;DHT22;19219;44.500;11.188;2023-06-19T12:12:09;31.90;88.50
32865;DHT22;19219;44.500;11.188;2023-06-19T12:14:34;31.90;89.00
32865;DHT22;19219;44.500;11.188;2023-06-19T12:17:00;32.00;87.50
32865;DHT22;19219;44.500;11.188;2023-06-19T12:19:26;31.90;89.20
32865;DHT22;19219;44.500;11.188;2023-06-19T12:21:53;32.00;87.20
32865;DHT22;19219;44.500;11.188;2023-06-19T12:24:19;32.10;88.60
32865;DHT22;19219;44.500;11.188;2023-06-19T12:26:44;32.10;85.60
32865;DHT22;19219;44.500;11.188;2023-06-19T12:29:10;31.80;86.30
32865;DHT22;19219;44.500;11.188;2023-06-19T12:31:36;31.70;86.20
32865;DHT22;19219;44.500;11.188;2023-06-19T12:34:02;31.90;89.30
32865;DHT22;19219;44.500;11.188;2023-06-19T12:36:28;32.10;87.50
32865;DHT22;19219;44.500;11.188;2023-06-19T12:38:57;32.10;88.50
32865;DHT22;19219;44.500;11.188;2023-06-19T12:41:23;32.10;87.40
32865;DHT22;19219;44.500;11.188;2023-06-19T12:43:49;32.20;85.90
32865;DHT22;19219;44.500;11.188;2023-06-19T12:46:15;32.30;85.70
32865;DHT22;19219;44.500;11.188;2023-06-19T12:48:43;32.30;86.60
32865;DHT22;19219;44.500;11.188;2023-06-19T12:51:09;32.30;88.10
32865;DHT22;19219;44.500;11.188;2023-06-19T12:53:35;32.20;84.40
32865;DHT22;19219;44.500;11.188;2023-06-19T12:56:00;32.30;83.90
32865;DHT22;19219;44.500;11.188;2023-06-19T12:58:26;32.40;85.20
32865;DHT22;19219;44.500;11.188;2023-06-19T13:00:53;32.40;85.20
32865;DHT22;19219;44.500;11.188;2023-06-19T13:03:19;32.40;83.90
32865;DHT22;19219;44.500;11.188;2023-06-19T13:05:48;32.40;85.00
32865;DHT22;19219;44.500;11.188;2023-06-19T13:08:13;32.40;85.60
32865;DHT22;19219;44.500;11.188;2023-06-19T13:10:39;32.60;86.60
32865;DHT22;19219;44.500;11.188;2023-06-19T13:13:05;32.60;88.60
32865;DHT22;19219;44.500;11.188;2023-06-19T13:15:31;32.60;89.60
32865;DHT22;19219;44.500;11.188;2023-06-19T13:17:59;32.50;85.20
32865;DHT22;19219;44.500;11.188;2023-06-19T13:20:25;32.40;88.10
32865;DHT22;19219;44.500;11.188;2023-06-19T13:22:51;32.50;89.80
32865;DHT22;19219;44.500;11.188;2023-06-19T13:25:18;32.60;89.90
32865;DHT22;19219;44.500;11.188;2023-06-19T13:27:44;32.60;88.00
32865;DHT22;19219;44.500;11.188;2023-06-19T13:30:10;32.70;87.60
32865;DHT22;19219;44.500;11.188;2023-06-19T13:32:36;32.90;87.20
32865;DHT22;19219;44.500;11.188;2023-06-19T13:35:04;32.90;85.90
32865;DHT22;19219;44.500;11.188;2023-06-19T13:37:30;32.90;85.00
32865;DHT22;19219;44.500;11.188;2023-06-19T13:39:55;33.00;85.30
32865;DHT22;19219;44.500;11.188;2023-06-19T13:42:21;32.90;86.00
32865;DHT22;19219;44.500;11.188;2023-06-19T13:44:47;32.90;84.30
32865;DHT22;19219;44.500;11.188;2023-06-19T13:47:12;32.70;85.40
32865;DHT22;19219;44.500;11.188;2023-06-19T13:49:38;32.70;81.90
32865;DHT22;19219;44.500;11.188;2023-06-19T13:52:05;32.80;83.30
32865;DHT22;19219;44.500;11.188;2023-06-19T13:54:30;32.80;83.20
32865;DHT22;19219;44.500;11.188;2023-06-19T13:56:56;32.90;84.50
32865;DHT22;19219;44.500;11.188;2023-06-19T13:59:22;32.80;82.60
32865;DHT22;19219;44.500;11.188;2023-06-19T14:01:47;32.90;79.90
32865;DHT22;19219;44.500;11.188;2023-06-19T14:04:13;32.90;80.80
32865;DHT22;19219;44.500;11.188;2023-06-19T14:06:39;32.80;78.90
32865;DHT22;19219;44.500;11.188;2023-06-19T14:09:07;33.00;78.60
32865;DHT22;19219;44.500;11.188;2023-06-19T14:11:32;33.10;77.90
32865;DHT22;19219;44.500;11.188;2023-06-19T14:13:58;33.10;79.20
32865;DHT22;19219;44.500;11.188;2023-06-19T14:16:24;33.20;79.50
32865;DHT22;19219;44.500;11.188;2023-06-19T14:18:49;33.00;79.10
32865;DHT22;19219;44.500;11.188;2023-06-19T14:21:15;32.90;80.50
32865;DHT22;19219;44.500;11.188;2023-06-19T14:23:41;32.90;78.50
32865;DHT22;19219;44.500;11.188;2023-06-19T14:26:11;32.90;79.60
32865;DHT22;19219;44.500;11.188;2023-06-19T14:28:37;33.10;79.20
32865;DHT22;19219;44.500;11.188;2023-06-19T14:31:06;33.20;78.30
32865;DHT22;19219;44.500;11.188;2023-06-19T14:33:32;33.10;77.40
32865;DHT22;19219;44.500;11.188;2023-06-19T14:35:59;33.10;77.50
32865;DHT22;19219;44.500;11.188;2023-06-19T14:38:25;33.00;78.40
32865;DHT22;19219;44.500;11.188;2023-06-19T14:40:53;32.90;78.30
32865;DHT22;19219;44.500;11.188;2023-06-19T14:43:19;33.10;81.20
32865;DHT22;19219;44.500;11.188;2023-06-19T14:45:45;33.20;80.30
32865;DHT22;19219;44.500;11.188;2023-06-19T14:48:10;33.20;77.90
32865;DHT22;19219;44.500;11.188;2023-06-19T14:50:36;33.20;75.90
32865;DHT22;19219;44.500;11.188;2023-06-19T14:53:02;33.20;78.30
32865;DHT22;19219;44.500;11.188;2023-06-19T14:55:27;33.10;77.60
32865;DHT22;19219;44.500;11.188;2023-06-19T14:57:53;32.90;76.00
32865;DHT22;19219;44.500;11.188;2023-06-19T15:00:19;32.80;75.60
32865;DHT22;19219;44.500;11.188;2023-06-19T15:02:45;32.90;77.30
32865;DHT22;19219;44.500;11.188;2023-06-19T15:05:10;32.90;75.70
32865;DHT22;19219;44.500;11.188;2023-06-19T15:07:36;33.00;74.80
32865;DHT22;19219;44.500;11.188;2023-06-19T15:10:02;32.90;74.90
32865;DHT22;19219;44.500;11.188;2023-06-19T15:12:29;32.90;74.30
32865;DHT22;19219;44.500;11.188;2023-06-19T15:14:54;33.00;74.10
32865;DHT22;19219;44.500;11.188;2023-06-19T15:17:20;32.90;73.10
32865;DHT22;19219;44.500;11.188;2023-06-19T15:19:46;33.00;72.40
32865;DHT22;19219;44.500;11.188;2023-06-19T15:22:12;32.90;72.60